sensor_id;sensor_type;location;lat;lon;timestamp;pressure;altitude;pressure_sealevel;temperature;humidity
46614;BME280;32338;50.430;6.806;2023-03-03T00:01:13;65141.00;;;-2.59;100.00
46614;BME280;32338;50.430;6.806;2023-03-03T00:03:40;65147.25;;;-2.58;100.00
46614;BME280;32338;50.430;6.806;2023-03-03T00:06:09;65137.34;;;-2.61;100.00
46614;BME280;32338;50.430;6.806;2023-03-03T00:08:36;65140.81;;;-2.62;100.00
46614;BME280;32338;50.430;6.806;2023-03-03T00:11:05;65141.69;;;-2.64;100.00
46614;BME280;32338;50.430;6.806;2023-03-03T00:13:40;65130.44;;;-2.69;100.00
46614;BME280;32338;50.430;6.806;2023-03-03T00:16:13;65133.56;;;-2.69;100.00
46614;BME280;32338;50.430;6.806;2023-03-03T00:18:44;65127.09;;;-2.72;100.00
46614;BME280;32338;50.430;6.806;2023-03-03T00:21:26;65126.88;;;-2.75;100.00
46614;BME280;32338;50.430;6.806;2023-03-03T00:24:01;65123.75;;;-2.75;100.00
46614;BME280;32338;50.430;6.806;2023-03-03T00:26:40;65124.09;;;-2.78;100.00
46614;BME280;32338;50.430;6.806;2023-03-03T00:29:26;65119.09;;;-2.82;100.00
46614;BME280;32338;50.430;6.806;2023-03-03T00:31:53;65119.44;;;-2.84;100.00
46614;BME280;32338;50.430;6.806;2023-03-03T00:34:24;65115.75;;;-2.85;100.00
46614;BME280;32338;50.430;6.806;2023-03-03T00:36:53;65116.31;;;-2.85;100.00
46614;BME280;32338;50.430;6.806;2023-03-03T00:39:26;65112.41;;;-2.88;100.00
46614;BME280;32338;50.430;6.806;2023-03-03T00:41:56;65111.88;;;-2.89;100.00
46614;BME280;32338;50.430;6.806;2023-03-03T00:44:40;65111.66;;;-2.91;100.00
46614;BME280;32338;50.430;6.806;2023-03-03T00:47:24;65123.00;;;-2.79;100.00
46614;BME280;32338;50.430;6.806;2023-03-03T00:49:52;65121.66;;;-2.82;100.00
46614;BME280;32338;50.430;6.806;2023-03-03T00:52:19;65115.56;;;-2.88;100.00
46614;BME280;32338;50.430;6.806;2023-03-03T00:54:46;65100.97;;;-2.97;100.00
46614;BME280;32338;50.430;6.806;2023-03-03T00:57:15;65103.84;;;-2.99;100.00
46614;BME280;32338;50.430;6.806;2023-03-03T00:59:41;65104.75;;;-3.00;100.00
46614;BME280;32338;50.430;6.806;2023-03-03T01:02:08;65102.75;;;-3.00;100.00
46614;BME280;32338;50.430;6.806;2023-03-03T01:04:35;65100.84;;;-3.04;100.00
46614;BME280;32338;50.430;6.806;2023-03-03T01:07:02;65090.72;;;-3.08;100.00
46614;BME280;32338;50.430;6.806;2023-03-03T01:09:29;65099.75;;;-3.05;100.00
46614;BME280;32338;50.430;6.806;2023-03-03T01:11:56;65085.38;;;-3.11;100.00
46614;BME280;32338;50.430;6.806;2023-03-03T01:14:24;65087.72;;;-3.14;100.00
46614;BME280;32338;50.430;6.806;2023-03-03T01:16:52;65085.16;;;-3.14;100.00
46614;BME280;32338;50.430;6.806;2023-03-03T01:19:19;65091.41;;;-3.13;100.00
46614;BME280;32338;50.430;6.806;2023-03-03T01:21:46;65090.38;;;-3.06;100.00
46614;BME280;32338;50.430;6.806;2023-03-03T01:24:13;65088.69;;;-3.08;100.00
46614;BME280;32338;50.430;6.806;2023-03-03T01:26:39;65086.28;;;-3.13;100.00
46614;BME280;32338;50.430;6.806;2023-03-03T01:29:08;65087.94;;;-3.11;100.00
46614;BME280;32338;50.430;6.806;2023-03-03T01:31:36;65082.03;;;-3.14;100.00
46614;BME280;32338;50.430;6.806;2023-03-03T01:34:03;65084.38;;;-3.17;100.00
46614;BME280;32338;50.430;6.806;2023-03-03T01:36:32;65075.38;;;-3.20;100.00
46614;BME280;32338;50.430;6.806;2023-03-03T01:38:59;65078.25;;;-3.22;100.00
46614;BME280;32338;50.430;6.806;2023-03-03T01:41:26;65076.59;;;-3.24;100.00
46614;BME280;32338;50.430;6.806;2023-03-03T01:43:54;65076.81;;;-3.21;100.00
46614;BME280;32338;50.430;6.806;2023-03-03T01:46:30;65077.94;;;-3.20;100.00
46614;BME280;32338;50.430;6.806;2023-03-03T01:49:02;65077.16;;;-3.23;100.00
46614;BME280;32338;50.430;6.806;2023-03-03T01:51:33;65075.25;;;-3.28;100.00
46614;BME280;32338;50.430;6.806;2023-03-03T01:54:02;65069.56;;;-3.28;100.00
46614;BME280;32338;50.430;6.806;2023-03-03T01:56:29;65065.91;;;-3.29;100.00
46614;BME280;32338;50.430;6.806;2023-03-03T01:58:59;65075.69;;;-3.22;100.00
46614;BME280;32338;50.430;6.806;2023-03-03T02:01:27;65063.34;;;-3.29;100.00
46614;BME280;32338;50.430;6.806;2023-03-03T02:03:54;65064.91;;;-3.35;100.00
46614;BME280;32338;50.430;6.806;2023-03-03T02:06:24;65057.00;;;-3.37;100.00
46614;BME280;32338;50.430;6.806;2023-03-03T02:08:56;65055.66;;;-3.41;100.00
46614;BME280;32338;50.430;6.806;2023-03-03T02:11:25;65053.09;;;-3.41;100.00
46614;BME280;32338;50.430;6.806;2023-03-03T02:13:52;65044.22;;;-3.49;100.00
46614;BME280;32338;50.430;6.806;2023-03-03T02:16:19;65039.44;;;-3.51;100.00
46614;BME280;32338;50.430;6.806;2023-03-03T02:18:46;65047.88;;;-3.48;100.00
46614;BME280;32338;50.430;6.806;2023-03-03T02:21:15;65056.78;;;-3.40;100.00
46614;BME280;32338;50.430;6.806;2023-03-03T02:23:49;65049.00;;;-3.47;100.00
46614;BME280;32338;50.430;6.806;2023-03-03T02:26:21;65043.44;;;-3.52;100.00
46614;BME280;32338;50.430;6.806;2023-03-03T02:28:48;65022.31;;;-3.72;100.00
46614;BME280;32338;50.430;6.806;2023-03-03T02:31:18;65027.53;;;-3.65;100.00
46614;BME280;32338;50.430;6.806;2023-03-03T02:33:47;65031.19;;;-3.64;100.00
46614;BME280;32338;50.430;6.806;2023-03-03T02:36:16;65033.44;;;-3.62;100.00
46614;BME280;32338;50.430;6.806;2023-03-03T02:38:47;65044.13;;;-3.56;100.00
46614;BME280;32338;50.430;6.806;2023-03-03T02:41:22;65043.44;;;-3.52;100.00
46614;BME280;32338;50.430;6.806;2023-03-03T02:43:57;65051.78;;;-3.45;100.00
46614;BME280;32338;50.430;6.806;2023-03-03T02:46:24;65062.34;;;-3.35;100.00
46614;BME280;32338;50.430;6.806;2023-03-03T02:48:51;65066.25;;;-3.31;100.00
46614;BME280;32338;50.430;6.806;2023-03-03T02:51:18;65071.81;;;-3.26;100.00
46614;BME280;32338;50.430;6.806;2023-03-03T02:53:45;65078.25;;;-3.22;100.00
46614;BME280;32338;50.430;6.806;2023-03-03T02:56:11;65087.59;;;-3.09;100.00
46614;BME280;32338;50.430;6.806;2023-03-03T02:58:40;65093.81;;;-3.08;100.00
46614;BME280;32338;50.430;6.806;2023-03-03T03:01:07;65092.72;;;-3.09;100.00
46614;BME280;32338;50.430;6.806;2023-03-03T03:03:33;65096.50;;;-3.01;100.00
46614;BME280;32338;50.430;6.806;2023-03-03T03:06:00;65115.19;;;-2.86;100.00
46614;BME280;32338;50.430;6.806;2023-03-03T03:08:26;65104.72;;;-2.88;100.00
46614;BME280;32338;50.430;6.806;2023-03-03T03:10:53;65109.19;;;-2.96;100.00
46614;BME280;32338;50.430;6.806;2023-03-03T03:13:21;65100.72;;;-2.99;100.00
46614;BME280;32338;50.430;6.806;2023-03-03T03:15:49;65098.50;;;-3.01;100.00
46614;BME280;32338;50.430;6.806;2023-03-03T03:18:16;65101.06;;;-3.01;100.00
46614;BME280;32338;50.430;6.806;2023-03-03T03:20:42;65102.41;;;-2.98;100.00
46614;BME280;32338;50.430;6.806;2023-03-03T03:23:12;65106.53;;;-2.91;100.00
46614;BME280;32338;50.430;6.806;2023-03-03T03:25:39;65116.53;;;-2.82;100.00
46614;BME280;32338;50.430;6.806;2023-03-03T03:28:10;65128.56;;;-2.73;100.00
46614;BME280;32338;50.430;6.806;2023-03-03T03:30:37;65124.44;;;-2.80;100.00
46614;BME280;32338;50.430;6.806;2023-03-03T03:33:05;65120.22;;;-2.81;100.00
46614;BME280;32338;50.430;6.806;2023-03-03T03:35:32;65119.09;;;-2.82;100.00
46614;BME280;32338;50.430;6.806;2023-03-03T03:38:00;65117.06;;;-2.82;100.00
46614;BME280;32338;50.430;6.806;2023-03-03T03:40:27;65122.78;;;-2.81;100.00
46614;BME280;32338;50.430;6.806;2023-03-03T03:42:54;65114.88;;;-2.84;100.00
46614;BME280;32338;50.430;6.806;2023-03-03T03:45:21;65123.31;;;-2.81;100.00
46614;BME280;32338;50.430;6.806;2023-03-03T03:47:47;65121.66;;;-2.82;100.00
46614;BME280;32338;50.430;6.806;2023-03-03T03:50:16;65129.88;;;-2.70;100.00
46614;BME280;32338;50.430;6.806;2023-03-03T03:52:43;65118.63;;;-2.75;100.00
46614;BME280;32338;50.430;6.806;2023-03-03T03:55:10;65126.53;;;-2.73;100.00
46614;BME280;32338;50.430;6.806;2023-03-03T03:57:37;65137.69;;;-2.63;100.00
46614;BME280;32338;50.430;6.806;2023-03-03T04:00:04;65143.72;;;-2.64;100.00
46614;BME280;32338;50.430;6.806;2023-03-03T04:02:31;65139.91;;;-2.61;100.00
46614;BME280;32338;50.430;6.806;2023-03-03T04:04:57;65146.94;;;-2.56;100.00
46614;BME280;32338;50.430;6.806;2023-03-03T04:07:26;65148.38;;;-2.57;100.00
46614;BME280;32338;50.430;6.806;2023-03-03T04:09:52;65141.00;;;-2.59;100.00
46614;BME280;32338;50.430;6.806;2023-03-03T04:12:19;65150.84;;;-2.53;100.00
46614;BME280;32338;50.430;6.806;2023-03-03T04:14:45;65156.72;;;-2.50;100.00
46614;BME280;32338;50.430;6.806;2023-03-03T04:17:15;65159.84;;;-2.49;100.00
46614;BME280;32338;50.430;6.806;2023-03-03T04:19:42;65152.94;;;-2.46;100.00
46614;BME280;32338;50.430;6.806;2023-03-03T04:22:09;65151.59;;;-2.50;100.00
46614;BME280;32338;50.430;6.806;2023-03-03T04:24:38;65147.16;;;-2.54;100.00
46614;BME280;32338;50.430;6.806;2023-03-03T04:27:05;65150.03;;;-2.56;100.00
46614;BME280;32338;50.430;6.806;2023-03-03T04:29:32;65153.94;;;-2.52;100.00
46614;BME280;32338;50.430;6.806;2023-03-03T04:31:59;65155.50;;;-2.46;100.00
46614;BME280;32338;50.430;6.806;2023-03-03T04:34:26;65162.50;;;-2.42;100.00
46614;BME280;32338;50.430;6.806;2023-03-03T04:36:52;65152.94;;;-2.46;100.00
46614;BME280;32338;50.430;6.806;2023-03-03T04:39:19;65155.59;;;-2.51;100.00
46614;BME280;32338;50.430;6.806;2023-03-03T04:41:47;65150.03;;;-2.56;100.00
46614;BME280;32338;50.430;6.806;2023-03-03T04:44:14;65153.47;;;-2.46;100.00
46614;BME280;32338;50.430;6.806;2023-03-03T04:46:41;65142.91;;;-2.55;100.00
46614;BME280;32338;50.430;6.806;2023-03-03T04:49:07;65143.94;;;-2.62;100.00
46614;BME280;32338;50.430;6.806;2023-03-03T04:51:34;65138.59;;;-2.64;100.00
46614;BME280;32338;50.430;6.806;2023-03-03T04:54:01;65132.13;;;-2.68;100.00
46614;BME280;32338;50.430;6.806;2023-03-03T04:56:29;65124.88;;;-2.74;100.00
46614;BME280;32338;50.430;6.806;2023-03-03T04:58:57;65141.38;;;-2.62;100.00
46614;BME280;32338;50.430;6.806;2023-03-03T05:01:24;65138.59;;;-2.64;100.00
46614;BME280;32338;50.430;6.806;2023-03-03T05:03:50;65152.28;;;-2.54;100.00
46614;BME280;32338;50.430;6.806;2023-03-03T05:06:17;65160.84;;;-2.43;100.00
46614;BME280;32338;50.430;6.806;2023-03-03T05:08:44;65155.16;;;-2.44;100.00
46614;BME280;32338;50.430;6.806;2023-03-03T05:11:11;65147.81;;;-2.58;100.00
46614;BME280;32338;50.430;6.806;2023-03-03T05:13:38;65138.59;;;-2.64;100.00
46614;BME280;32338;50.430;6.806;2023-03-03T05:16:07;65142.47;;;-2.61;100.00
46614;BME280;32338;50.430;6.806;2023-03-03T05:18:34;65153.63;;;-2.50;100.00
46614;BME280;32338;50.430;6.806;2023-03-03T05:21:01;65160.28;;;-2.44;100.00
46614;BME280;32338;50.430;6.806;2023-03-03T05:23:27;65149.50;;;-2.56;100.00
46614;BME280;32338;50.430;6.806;2023-03-03T05:25:54;65139.47;;;-2.66;100.00
46614;BME280;32338;50.430;6.806;2023-03-03T05:28:21;65152.06;;;-2.56;100.00
46614;BME280;32338;50.430;6.806;2023-03-03T05:30:48;65151.03;;;-2.50;100.00
46614;BME280;32338;50.430;6.806;2023-03-03T05:33:17;65129.34;;;-2.70;100.00
46614;BME280;32338;50.430;6.806;2023-03-03T05:35:44;65132.44;;;-2.70;100.00
46614;BME280;32338;50.430;6.806;2023-03-03T05:38:11;65129.47;;;-2.75;100.00
46614;BME280;32338;50.430;6.806;2023-03-03T05:40:38;65119.09;;;-2.82;100.00
46614;BME280;32338;50.430;6.806;2023-03-03T05:43:04;65138.59;;;-2.64;100.00
46614;BME280;32338;50.430;6.806;2023-03-03T05:45:31;65139.13;;;-2.64;100.00
46614;BME280;32338;50.430;6.806;2023-03-03T05:47:58;65131.66;;;-2.73;100.00
46614;BME280;32338;50.430;6.806;2023-03-03T05:50:27;65142.25;;;-2.63;100.00
46614;BME280;32338;50.430;6.806;2023-03-03T05:52:53;65137.47;;;-2.65;100.00
46614;BME280;32338;50.430;6.806;2023-03-03T05:55:20;65127.09;;;-2.72;100.00
46614;BME280;32338;50.430;6.806;2023-03-03T05:57:47;65130.78;;;-2.71;100.00
46614;BME280;32338;50.430;6.806;2023-03-03T06:00:15;65124.88;;;-2.74;100.00
46614;BME280;32338;50.430;6.806;2023-03-03T06:02:42;65120.22;;;-2.81;100.00
46614;BME280;32338;50.430;6.806;2023-03-03T06:05:09;65115.75;;;-2.85;100.00
46614;BME280;32338;50.430;6.806;2023-03-03T06:07:37;65126.53;;;-2.73;100.00
46614;BME280;32338;50.430;6.806;2023-03-03T06:10:05;65120.97;;;-2.78;100.00
46614;BME280;32338;50.430;6.806;2023-03-03T06:12:32;65120.44;;;-2.79;100.00
46614;BME280;32338;50.430;6.806;2023-03-03T06:14:59;65121.31;;;-2.80;100.00
46614;BME280;32338;50.430;6.806;2023-03-03T06:17:25;65110.75;;;-2.90;100.00
46614;BME280;32338;50.430;6.806;2023-03-03T06:19:52;65114.66;;;-2.86;100.00
46614;BME280;32338;50.430;6.806;2023-03-03T06:22:19;65113.19;;;-2.85;100.00
46614;BME280;32338;50.430;6.806;2023-03-03T06:24:49;65136.34;;;-2.66;100.00
46614;BME280;32338;50.430;6.806;2023-03-03T06:27:16;65121.78;;;-2.87;100.00
46614;BME280;32338;50.430;6.806;2023-03-03T06:29:43;65113.53;;;-2.87;100.00
46614;BME280;32338;50.430;6.806;2023-03-03T06:32:10;65116.88;;;-2.84;100.00
46614;BME280;32338;50.430;6.806;2023-03-03T06:34:37;65105.63;;;-2.90;100.00
46614;BME280;32338;50.430;6.806;2023-03-03T06:37:04;65097.59;;;-3.00;100.00
46614;BME280;32338;50.430;6.806;2023-03-03T06:39:30;65095.72;;;-3.04;100.00
46614;BME280;32338;50.430;6.806;2023-03-03T06:41:58;65087.03;;;-3.10;100.00
46614;BME280;32338;50.430;6.806;2023-03-03T06:44:25;65077.94;;;-3.20;100.00
46614;BME280;32338;50.430;6.806;2023-03-03T06:46:52;65074.16;;;-3.29;100.00
46614;BME280;32338;50.430;6.806;2023-03-03T06:49:21;65071.03;;;-3.29;100.00
46614;BME280;32338;50.430;6.806;2023-03-03T06:51:48;65079.94;;;-3.21;100.00
46614;BME280;32338;50.430;6.806;2023-03-03T06:54:16;65075.91;;;-3.20;100.00
46614;BME280;32338;50.430;6.806;2023-03-03T06:56:44;65101.97;;;-3.03;100.00
46614;BME280;32338;50.430;6.806;2023-03-03T06:59:14;65096.28;;;-3.03;100.00
46614;BME280;32338;50.430;6.806;2023-03-03T07:01:44;65084.59;;;-3.14;100.00
46614;BME280;32338;50.430;6.806;2023-03-03T07:04:20;65082.16;;;-3.19;100.00
46614;BME280;32338;50.430;6.806;2023-03-03T07:06:49;65083.13;;;-3.13;100.00
46614;BME280;32338;50.430;6.806;2023-03-03T07:09:20;65091.50;;;-3.05;100.00
46614;BME280;32338;50.430;6.806;2023-03-03T07:11:48;65078.69;;;-3.17;100.00
46614;BME280;32338;50.430;6.806;2023-03-03T07:14:18;65095.28;;;-3.09;100.00
46614;BME280;32338;50.430;6.806;2023-03-03T07:16:45;65106.31;;;-2.94;100.00
46614;BME280;32338;50.430;6.806;2023-03-03T07:19:17;65111.88;;;-2.89;100.00
46614;BME280;32338;50.430;6.806;2023-03-03T07:21:45;65115.41;;;-2.83;100.00
46614;BME280;32338;50.430;6.806;2023-03-03T07:24:24;65117.44;;;-2.84;100.00
46614;BME280;32338;50.430;6.806;2023-03-03T07:26:53;65110.41;;;-2.88;100.00
46614;BME280;32338;50.430;6.806;2023-03-03T07:29:24;65102.97;;;-2.97;100.00
46614;BME280;32338;50.430;6.806;2023-03-03T07:31:52;65117.97;;;-2.83;100.00
46614;BME280;32338;50.430;6.806;2023-03-03T07:34:20;65120.91;;;-2.85;100.00
46614;BME280;32338;50.430;6.806;2023-03-03T07:36:48;65109.97;;;-2.93;100.00
46614;BME280;32338;50.430;6.806;2023-03-03T07:39:30;65118.34;;;-2.85;100.00
46614;BME280;32338;50.430;6.806;2023-03-03T07:42:14;65124.66;;;-2.77;100.00
46614;BME280;32338;50.430;6.806;2023-03-03T07:44:44;65125.44;;;-2.74;100.00
46614;BME280;32338;50.430;6.806;2023-03-03T07:47:20;65131.34;;;-2.71;100.00
46614;BME280;32338;50.430;6.806;2023-03-03T07:49:48;65116.53;;;-2.82;100.00
46614;BME280;32338;50.430;6.806;2023-03-03T07:52:37;65126.53;;;-2.73;100.00
46614;BME280;32338;50.430;6.806;2023-03-03T07:55:22;65146.94;;;-2.56;100.00
46614;BME280;32338;50.430;6.806;2023-03-03T07:57:52;65146.94;;;-2.56;100.00
46614;BME280;32338;50.430;6.806;2023-03-03T08:03:34;65156.94;;;-2.47;100.00
46614;BME280;32338;50.430;6.806;2023-03-03T08:06:10;65151.94;;;-2.52;100.00
46614;BME280;32338;50.430;6.806;2023-03-03T08:08:51;65179.22;;;-2.26;100.00
46614;BME280;32338;50.430;6.806;2023-03-03T08:11:17;65156.19;;;-2.50;100.00
46614;BME280;32338;50.430;6.806;2023-03-03T08:13:44;65168.22;;;-2.41;100.00
46614;BME280;32338;50.430;6.806;2023-03-03T08:16:27;65171.22;;;-2.36;100.00
46614;BME280;32338;50.430;6.806;2023-03-03T08:19:01;65187.22;;;-2.17;100.00
46614;BME280;32338;50.430;6.806;2023-03-03T08:21:29;65174.53;;;-2.33;100.00
46614;BME280;32338;50.430;6.806;2023-03-03T08:23:57;65152.94;;;-2.46;100.00
46614;BME280;32338;50.430;6.806;2023-03-03T08:26:24;65137.69;;;-2.63;100.00
46614;BME280;32338;50.430;6.806;2023-03-03T08:28:52;65157.50;;;-2.47;100.00
46614;BME280;32338;50.430;6.806;2023-03-03T08:31:20;65160.84;;;-2.43;100.00
46614;BME280;32338;50.430;6.806;2023-03-03T08:33:47;65164.19;;;-2.40;100.00
46614;BME280;32338;50.430;6.806;2023-03-03T08:36:15;65174.22;;;-2.31;100.00
46614;BME280;32338;50.430;6.806;2023-03-03T08:38:42;65183.34;;;-2.20;100.00
46614;BME280;32338;50.430;6.806;2023-03-03T08:41:09;65169.75;;;-2.35;100.00
46614;BME280;32338;50.430;6.806;2023-03-03T08:43:35;65182.00;;;-2.24;100.00
46614;BME280;32338;50.430;6.806;2023-03-03T08:46:04;65173.53;;;-2.27;100.00
46614;BME280;32338;50.430;6.806;2023-03-03T08:48:32;65183.66;;;-2.22;100.00
46614;BME280;32338;50.430;6.806;2023-03-03T08:50:59;65177.53;;;-2.28;100.00
46614;BME280;32338;50.430;6.806;2023-03-03T08:53:27;65190.91;;;-2.16;100.00
46614;BME280;32338;50.430;6.806;2023-03-03T08:55:54;65190.00;;;-2.14;100.00
46614;BME280;32338;50.430;6.806;2023-03-03T08:58:22;65190.34;;;-2.16;100.00
46614;BME280;32338;50.430;6.806;2023-03-03T09:00:48;65185.91;;;-2.20;100.00
46614;BME280;32338;50.430;6.806;2023-03-03T09:03:15;65185.13;;;-2.23;100.00
46614;BME280;32338;50.430;6.806;2023-03-03T09:05:42;65197.38;;;-2.12;100.00
46614;BME280;32338;50.430;6.806;2023-03-03T09:08:09;65203.16;;;-2.04;100.00
46614;BME280;32338;50.430;6.806;2023-03-03T09:10:37;65207.63;;;-2.00;100.00
46614;BME280;32338;50.430;6.806;2023-03-03T09:13:07;65216.31;;;-1.94;100.00
46614;BME280;32338;50.430;6.806;2023-03-03T09:15:38;65212.84;;;-1.93;100.00
46614;BME280;32338;50.430;6.806;2023-03-03T09:18:13;65215.41;;;-1.93;100.00
46614;BME280;32338;50.430;6.806;2023-03-03T09:20:41;65223.00;;;-1.88;100.00
46614;BME280;32338;50.430;6.806;2023-03-03T09:23:30;65218.19;;;-1.90;100.00
46614;BME280;32338;50.430;6.806;2023-03-03T09:26:22;65228.00;;;-1.84;100.00
46614;BME280;32338;50.430;6.806;2023-03-03T09:28:51;65231.00;;;-1.78;100.00
46614;BME280;32338;50.430;6.806;2023-03-03T09:31:24;65236.38;;;-1.76;100.00
46614;BME280;32338;50.430;6.806;2023-03-03T09:33:51;65238.25;;;-1.72;100.00
46614;BME280;32338;50.430;6.806;2023-03-03T09:36:24;65247.72;;;-1.63;100.00
46614;BME280;32338;50.430;6.806;2023-03-03T09:38:52;65249.63;;;-1.59;100.00
46614;BME280;32338;50.430;6.806;2023-03-03T09:47:55;65288.06;;;-1.23;100.00
46614;BME280;32338;50.430;6.806;2023-03-03T09:50:33;65285.28;;;-1.26;100.00
46614;BME280;32338;50.430;6.806;2023-03-03T09:53:10;65307.72;;;-1.10;100.00
46614;BME280;32338;50.430;6.806;2023-03-03T09:55:47;65275.38;;;-1.40;100.00
46614;BME280;32338;50.430;6.806;2023-03-03T09:58:38;65276.13;;;-1.37;100.00
46614;BME280;32338;50.430;6.806;2023-03-03T10:01:27;65289.72;;;-1.22;100.00
46614;BME280;32338;50.430;6.806;2023-03-03T10:04:27;65276.72;;;-1.36;100.00
46614;BME280;32338;50.430;6.806;2023-03-03T10:07:07;65291.19;;;-1.23;100.00
46614;BME280;32338;50.430;6.806;2023-03-03T10:09:57;65282.28;;;-1.31;100.00
46614;BME280;32338;50.430;6.806;2023-03-03T10:12:32;65301.78;;;-1.13;100.00
46614;BME280;32338;50.430;6.806;2023-03-03T10:15:17;65311.03;;;-1.07;100.00
46614;BME280;32338;50.430;6.806;2023-03-03T10:17:49;65316.06;;;-1.02;100.00
46614;BME280;32338;50.430;6.806;2023-03-03T10:20:29;65324.09;;;-0.92;100.00
46614;BME280;32338;50.430;6.806;2023-03-03T10:23:13;65298.44;;;-1.16;100.00
46614;BME280;32338;50.430;6.806;2023-03-03T10:25:56;65293.97;;;-1.20;100.00
46614;BME280;32338;50.430;6.806;2023-03-03T10:28:42;65311.81;;;-1.04;100.00
46614;BME280;32338;50.430;6.806;2023-03-03T10:31:19;65301.78;;;-1.13;100.00
46614;BME280;32338;50.430;6.806;2023-03-03T10:33:56;65310.72;;;-1.05;100.00
46614;BME280;32338;50.430;6.806;2023-03-03T10:36:43;65317.72;;;-1.01;100.00
46614;BME280;32338;50.430;6.806;2023-03-03T10:42:16;65330.56;;;-0.89;100.00
46614;BME280;32338;50.430;6.806;2023-03-03T10:47:49;65350.72;;;-0.63;100.00
46614;BME280;32338;50.430;6.806;2023-03-03T10:50:23;65347.50;;;-0.71;100.00
46614;BME280;32338;50.430;6.806;2023-03-03T10:53:02;65336.56;;;-0.78;100.00
46614;BME280;32338;50.430;6.806;2023-03-03T10:55:43;65345.63;;;-0.75;100.00
46614;BME280;32338;50.430;6.806;2023-03-03T10:58:30;65359.78;;;-0.59;100.00
46614;BME280;32338;50.430;6.806;2023-03-03T11:01:11;65355.31;;;-0.63;100.00
46614;BME280;32338;50.430;6.806;2023-03-03T11:03:54;65371.28;;;-0.51;100.00
46614;BME280;32338;50.430;6.806;2023-03-03T11:06:37;65344.50;;;-0.76;100.00
46614;BME280;32338;50.430;6.806;2023-03-03T11:09:17;65336.56;;;-0.78;100.00
46614;BME280;32338;50.430;6.806;2023-03-03T11:11:50;65331.91;;;-0.85;100.00
46614;BME280;32338;50.430;6.806;2023-03-03T11:14:22;65295.09;;;-1.19;100.00
46614;BME280;32338;50.430;6.806;2023-03-03T11:16:57;65271.34;;;-1.39;100.00
46614;BME280;32338;50.430;6.806;2023-03-03T11:19:55;65301.44;;;-1.11;100.00
46614;BME280;32338;50.430;6.806;2023-03-03T11:22:33;65316.41;;;-1.04;100.00
46614;BME280;32338;50.430;6.806;2023-03-03T11:25:22;65317.72;;;-1.01;100.00
46614;BME280;32338;50.430;6.806;2023-03-03T11:28:10;65357.53;;;-0.61;100.00
46614;BME280;32338;50.430;6.806;2023-03-03T11:30:49;65356.97;;;-0.62;100.00
46614;BME280;32338;50.430;6.806;2023-03-03T11:33:24;65350.06;;;-0.71;100.00
46614;BME280;32338;50.430;6.806;2023-03-03T11:36:09;65352.53;;;-0.66;100.00
46614;BME280;32338;50.430;6.806;2023-03-03T11:38:45;65347.28;;;-0.73;100.00
46614;BME280;32338;50.430;6.806;2023-03-03T11:41:28;65343.03;;;-0.75;100.00
46614;BME280;32338;50.430;6.806;2023-03-03T11:44:01;65343.25;;;-0.72;100.00
46614;BME280;32338;50.430;6.806;2023-03-03T11:46:34;65346.75;;;-0.74;100.00
46614;BME280;32338;50.430;6.806;2023-03-03T11:49:05;65354.75;;;-0.64;100.00
46614;BME280;32338;50.430;6.806;2023-03-03T11:51:40;65346.38;;;-0.72;100.00
46614;BME280;32338;50.430;6.806;2023-03-03T11:54:16;65350.06;;;-0.71;100.00
46614;BME280;32338;50.430;6.806;2023-03-03T11:56:46;65348.28;;;-0.68;100.00
46614;BME280;32338;50.430;6.806;2023-03-03T11:59:23;65354.75;;;-0.64;100.00
46614;BME280;32338;50.430;6.806;2023-03-03T12:02:02;65347.72;;;-0.68;100.00
46614;BME280;32338;50.430;6.806;2023-03-03T12:04:36;65353.44;;;-0.68;100.00
46614;BME280;32338;50.430;6.806;2023-03-03T12:07:18;65353.28;;;-0.63;100.00
46614;BME280;32338;50.430;6.806;2023-03-03T12:09:56;65375.41;;;-0.45;100.00
46614;BME280;32338;50.430;6.806;2023-03-03T12:12:31;65401.72;;;-0.25;100.00
46614;BME280;32338;50.430;6.806;2023-03-03T12:15:11;65397.69;;;-0.24;100.00
46614;BME280;32338;50.430;6.806;2023-03-03T12:18:03;65416.34;;;-0.05;100.00
46614;BME280;32338;50.430;6.806;2023-03-03T12:20:42;65442.13;;;0.14;100.00
46614;BME280;32338;50.430;6.806;2023-03-03T12:23:21;65452.75;;;0.24;100.00
46614;BME280;32338;50.430;6.806;2023-03-03T12:25:57;65449.59;;;0.24;100.00
46614;BME280;32338;50.430;6.806;2023-03-03T12:28:32;65443.03;;;0.13;100.00
46614;BME280;32338;50.430;6.806;2023-03-03T12:31:16;65436.75;;;0.12;100.00
46614;BME280;32338;50.430;6.806;2023-03-03T12:33:54;65441.59;;;0.14;100.00
46614;BME280;32338;50.430;6.806;2023-03-03T12:36:36;65432.97;;;0.04;100.00
46614;BME280;32338;50.430;6.806;2023-03-03T12:39:11;65429.94;;;0.10;100.00
46614;BME280;32338;50.430;6.806;2023-03-03T12:41:46;65435.84;;;0.13;100.00
46614;BME280;32338;50.430;6.806;2023-03-03T12:44:22;65423.94;;;0.00;100.00
46614;BME280;32338;50.430;6.806;2023-03-03T12:46:56;65416.34;;;-0.05;100.00
46614;BME280;32338;50.430;6.806;2023-03-03T12:49:33;65432.31;;;0.08;100.00
46614;BME280;32338;50.430;6.806;2023-03-03T12:52:10;65436.22;;;0.11;100.00
46614;BME280;32338;50.430;6.806;2023-03-03T12:54:50;65442.47;;;0.12;100.00
46614;BME280;32338;50.430;6.806;2023-03-03T12:57:24;65388.78;;;-0.32;100.00
46614;BME280;32338;50.430;6.806;2023-03-03T13:00:10;65388.78;;;-0.32;100.00
46614;BME280;32338;50.430;6.806;2023-03-03T13:02:46;65386.22;;;-0.32;100.00
46614;BME280;32338;50.430;6.806;2023-03-03T13:05:23;65397.69;;;-0.24;100.00
46614;BME280;32338;50.430;6.806;2023-03-03T13:08:00;65398.81;;;-0.23;100.00
46614;BME280;32338;50.430;6.806;2023-03-03T13:10:37;65372.03;;;-0.48;100.00
46614;BME280;32338;50.430;6.806;2023-03-03T13:13:10;65366.47;;;-0.53;100.00
46614;BME280;32338;50.430;6.806;2023-03-03T13:15:43;65376.16;;;-0.42;100.00
46614;BME280;32338;50.430;6.806;2023-03-03T13:18:26;65412.00;;;-0.13;100.00
46614;BME280;32338;50.430;6.806;2023-03-03T13:20:58;65412.97;;;-0.08;100.00
46614;BME280;32338;50.430;6.806;2023-03-03T13:23:42;65397.50;;;-0.27;100.00
46614;BME280;32338;50.430;6.806;2023-03-03T13:26:18;65388.56;;;-0.35;100.00
46614;BME280;32338;50.430;6.806;2023-03-03T13:28:55;65390.25;;;-0.34;100.00